createdAt,value
2018-04-19T00:02:19.190Z,74.88
2018-04-19T00:04:47.574Z,74.81
2018-04-19T00:07:15.986Z,74.36
2018-04-19T00:09:44.406Z,74.41
2018-04-19T00:12:12.810Z,75.04
2018-04-19T00:14:41.945Z,75.74
2018-04-19T00:17:10.355Z,75.76
2018-04-19T00:19:38.752Z,75.79
2018-04-19T00:22:07.135Z,75.89
2018-04-19T00:24:35.534Z,75.97
2018-04-19T00:27:04.677Z,76.30
2018-04-19T00:29:33.065Z,76.20
2018-04-19T00:32:01.451Z,76.49
2018-04-19T00:34:29.911Z,76.80
2018-04-19T00:36:58.274Z,76.93
2018-04-19T00:39:27.425Z,77.00
2018-04-19T00:41:55.827Z,77.48
2018-04-19T00:44:24.211Z,77.82
2018-04-19T00:46:52.662Z,78.01
2018-04-19T00:49:21.122Z,78.36
2018-04-19T00:51:49.510Z,78.06
2018-04-19T00:54:17.902Z,78.11
2018-04-19T00:56:46.314Z,78.08
2018-04-19T00:59:14.714Z,77.56
2018-04-19T01:01:43.110Z,76.08
2018-04-19T01:04:11.530Z,74.61
2018-04-19T01:06:39.903Z,74.94
2018-04-19T01:09:09.045Z,75.09
2018-04-19T01:11:38.213Z,75.85
2018-04-19T01:14:06.674Z,76.28
2018-04-19T01:16:35.913Z,76.25
2018-04-19T01:19:04.321Z,76.05
2018-04-19T01:21:32.701Z,76.91
2018-04-19T01:24:01.126Z,77.15
2018-04-19T01:26:30.342Z,77.14
2018-04-19T01:28:59.502Z,77.67
2018-04-19T01:31:27.892Z,77.93
2018-04-19T01:33:56.419Z,78.67
2018-04-19T01:36:27.821Z,79.18
2018-04-19T01:38:56.197Z,79.28
2018-04-19T01:41:24.606Z,78.96
2018-04-19T01:43:53.845Z,79.64
2018-04-19T01:46:23.065Z,79.70
2018-04-19T01:48:51.474Z,80.07
2018-04-19T01:51:20.653Z,79.76
2018-04-19T01:53:49.069Z,80.29
2018-04-19T01:56:18.258Z,80.47
2018-04-19T01:58:46.706Z,79.84
2018-04-19T02:01:15.104Z,79.85
2018-04-19T02:03:43.497Z,78.42
2018-04-19T02:06:11.885Z,79.22
2018-04-19T02:08:40.333Z,79.63
2018-04-19T02:11:08.743Z,79.79
2018-04-19T02:13:37.166Z,80.04
2018-04-19T02:16:05.571Z,80.38
2018-04-19T02:18:34.722Z,80.79
2018-04-19T02:21:03.123Z,81.11
2018-04-19T02:23:31.533Z,81.07
2018-04-19T02:26:00.691Z,81.39
2018-04-19T02:28:29.082Z,81.42
2018-04-19T02:30:57.514Z,81.57
2018-04-19T02:33:25.915Z,81.82
2018-04-19T02:35:54.363Z,82.06
2018-04-19T02:38:23.537Z,82.03
2018-04-19T02:40:51.927Z,81.92
2018-04-19T02:43:20.316Z,82.13
2018-04-19T02:45:48.736Z,82.37
2018-04-19T02:48:17.116Z,82.38
2018-04-19T02:50:45.555Z,82.09
2018-04-19T02:53:13.983Z,82.31
2018-04-19T02:55:43.180Z,82.71
2018-04-19T02:58:12.348Z,82.70
2018-04-19T03:00:40.798Z,82.57
2018-04-19T03:03:09.194Z,82.77
2018-04-19T03:05:37.580Z,83.11
2018-04-19T03:08:06.141Z,82.88
2018-04-19T03:10:34.536Z,82.74
2018-04-19T03:13:02.932Z,82.81
2018-04-19T03:15:31.317Z,82.68
2018-04-19T03:17:59.719Z,82.76
2018-04-19T03:20:28.128Z,82.66
2018-04-19T03:22:57.277Z,82.42
2018-04-19T03:25:26.445Z,82.54
2018-04-19T03:27:55.782Z,82.69
2018-04-19T03:30:24.214Z,82.87
2018-04-19T03:32:52.605Z,83.17
2018-04-19T03:35:21.770Z,83.40
2018-04-19T03:37:50.200Z,83.97
2018-04-19T03:40:18.613Z,83.65
2018-04-19T03:42:46.999Z,83.83
2018-04-19T03:45:16.238Z,83.80
2018-04-19T03:47:44.633Z,83.54
2018-04-19T03:50:13.774Z,83.70
2018-04-19T03:52:42.154Z,83.80
2018-04-19T03:55:10.599Z,83.80
2018-04-19T03:57:39.013Z,83.65
2018-04-19T04:00:07.390Z,83.96
2018-04-19T04:02:35.779Z,83.61
2018-04-19T04:05:04.152Z,83.57
2018-04-19T04:07:33.288Z,83.40
2018-04-19T04:10:01.696Z,83.55
2018-04-19T04:12:30.131Z,83.09
2018-04-19T04:14:58.539Z,82.84
2018-04-19T04:17:44.634Z,83.36
2018-04-19T04:20:30.741Z,83.40
2018-04-19T04:23:31.375Z,83.27
2018-04-19T04:25:59.773Z,83.00
2018-04-19T04:28:28.921Z,83.08
2018-04-19T04:30:57.317Z,82.99
2018-04-19T04:33:25.696Z,82.13
2018-04-19T04:35:54.139Z,82.05
2018-04-19T04:38:22.555Z,82.24
2018-04-19T04:40:50.972Z,82.14
2018-04-19T04:43:19.461Z,81.59
2018-04-19T04:45:48.650Z,81.74
2018-04-19T04:48:17.042Z,80.76
2018-04-19T04:50:45.454Z,80.23
2018-04-19T04:53:13.956Z,79.94
2018-04-19T04:55:42.366Z,78.96
2018-04-19T04:58:10.826Z,78.25
2018-04-19T05:00:39.211Z,76.52
2018-04-19T05:03:07.653Z,75.81
2018-04-19T05:05:36.857Z,74.21
2018-04-19T05:08:06.025Z,74.04
2018-04-19T05:10:34.469Z,72.66
2018-04-19T05:13:02.890Z,68.81
2018-04-19T05:15:32.040Z,70.50
2018-04-19T05:18:00.454Z,69.25
2018-04-19T05:20:28.850Z,68.24
2018-04-19T05:22:57.238Z,68.93
2018-04-19T05:25:25.696Z,67.54
2018-04-19T05:27:54.109Z,68.11
2018-04-19T05:30:23.361Z,65.38
2018-04-19T05:32:52.513Z,67.20
2018-04-19T05:35:20.925Z,66.61
2018-04-19T05:37:49.321Z,65.38
2018-04-19T05:40:18.474Z,63.49
2018-04-19T05:42:46.892Z,62.55
2018-04-19T05:45:15.293Z,61.41
2018-04-19T05:47:44.511Z,61.07
2018-04-19T05:50:12.980Z,61.51
2018-04-19T05:52:42.153Z,63.41
2018-04-19T05:55:10.538Z,60.98
2018-04-19T05:57:38.989Z,61.09
2018-04-19T06:00:07.367Z,60.04
2018-04-19T06:02:35.775Z,61.97
2018-04-19T06:05:04.241Z,59.87
2018-04-19T06:07:32.717Z,58.09
2018-04-19T06:10:01.109Z,59.56
2018-04-19T06:12:29.486Z,57.08
2018-04-19T06:14:57.865Z,56.86
2018-04-19T06:17:26.277Z,59.02
2018-04-19T06:19:55.402Z,55.09
2018-04-19T06:22:23.833Z,54.86
2018-04-19T06:24:52.206Z,52.58
2018-04-19T06:27:20.614Z,52.94
2018-04-19T06:29:49.773Z,48.57
2018-04-19T06:32:19.143Z,49.26
2018-04-19T06:34:47.524Z,48.38
2018-04-19T06:37:15.938Z,47.97
2018-04-19T06:39:45.071Z,46.87
2018-04-19T06:42:13.470Z,46.36
2018-04-19T06:44:41.850Z,40.49
2018-04-19T06:47:10.227Z,41.56
2018-04-19T06:49:38.669Z,42.51
2018-04-19T06:52:07.837Z,40.00
2018-04-19T06:54:36.217Z,37.97
2018-04-19T06:57:04.606Z,38.93
2018-04-19T06:59:33.025Z,37.67
2018-04-19T07:02:02.186Z,35.98
2018-04-19T07:04:30.582Z,36.16
2018-04-19T07:06:58.963Z,34.29
2018-04-19T07:09:27.347Z,36.23
2018-04-19T07:11:55.738Z,33.88
2018-04-19T07:14:24.107Z,33.60
2018-04-19T07:16:52.548Z,34.68
2018-04-19T07:19:20.922Z,36.00
2018-04-19T07:21:49.313Z,33.99
2018-04-19T07:24:17.698Z,35.16
2018-04-19T07:26:46.093Z,35.93
2018-04-19T07:29:14.478Z,33.65
2018-04-19T07:31:42.874Z,30.93
2018-04-19T07:34:11.253Z,33.17
2018-04-19T07:36:39.677Z,33.35
2018-04-19T07:39:08.082Z,34.16
2018-04-19T07:41:36.474Z,33.21
2018-04-19T07:44:04.874Z,33.14
2018-04-19T07:46:33.243Z,30.60
2018-04-19T07:49:01.611Z,29.69
2018-04-19T07:51:30.889Z,32.13
2018-04-19T07:53:59.258Z,29.59
2018-04-19T07:56:27.661Z,29.58
2018-04-19T07:58:56.044Z,31.08
2018-04-19T08:01:24.442Z,27.68
2018-04-19T08:03:53.634Z,27.48
2018-04-19T08:06:22.042Z,25.99
2018-04-19T08:08:50.421Z,26.45
2018-04-19T08:11:18.890Z,27.65
2018-04-19T08:13:47.250Z,27.31
2018-04-19T08:16:15.646Z,30.02
2018-04-19T08:18:44.046Z,27.69
2018-04-19T08:21:13.219Z,27.97
2018-04-19T08:23:41.595Z,27.90
2018-04-19T08:26:09.991Z,27.09
2018-04-19T08:28:38.382Z,26.92
2018-04-19T08:31:06.809Z,25.90
2018-04-19T08:33:35.183Z,27.01
2018-04-19T08:36:04.345Z,26.47
2018-04-19T08:38:32.726Z,25.94
2018-04-19T08:41:01.109Z,27.37
2018-04-19T08:43:29.509Z,24.61
2018-04-19T08:45:58.657Z,24.80
2018-04-19T08:48:27.029Z,27.28
2018-04-19T08:50:55.401Z,26.56
2018-04-19T08:53:23.804Z,24.75
2018-04-19T08:55:52.173Z,25.77
2018-04-19T08:58:20.606Z,24.81
2018-04-19T09:00:48.979Z,25.03
2018-04-19T09:03:17.375Z,23.99
2018-04-19T09:05:45.782Z,23.47
2018-04-19T09:08:14.928Z,23.85
2018-04-19T09:10:43.357Z,23.76
2018-04-19T09:13:12.621Z,23.91
2018-04-19T09:15:40.999Z,23.56
2018-04-19T09:18:09.387Z,26.22
2018-04-19T09:20:37.785Z,24.49
2018-04-19T09:23:06.404Z,24.00
2018-04-19T09:25:34.702Z,24.42
2018-04-19T09:28:03.128Z,24.21
2018-04-19T09:30:31.553Z,23.62
2018-04-19T09:33:00.711Z,25.02
2018-04-19T09:35:29.096Z,24.64
2018-04-19T09:37:57.485Z,27.05
2018-04-19T09:40:25.876Z,23.28
2018-04-19T09:42:54.276Z,25.18
2018-04-19T09:45:23.465Z,23.73
2018-04-19T09:47:51.834Z,22.51
2018-04-19T09:50:20.203Z,25.40
2018-04-19T09:52:48.597Z,23.27
2018-04-19T09:55:16.972Z,24.18
2018-04-19T10:00:48.667Z,24.37
2018-04-19T10:03:18.846Z,22.38
2018-04-19T10:05:48.122Z,22.75
2018-04-19T10:08:16.506Z,20.64
2018-04-19T10:10:45.642Z,22.87
2018-04-19T10:13:14.016Z,22.46
2018-04-19T10:15:42.487Z,21.20
2018-04-19T10:18:10.862Z,22.82
2018-04-19T10:20:39.222Z,20.64
2018-04-19T10:23:08.373Z,19.52
2018-04-19T10:25:36.746Z,20.27
2018-04-19T10:28:05.130Z,19.72
2018-04-19T10:30:33.509Z,19.35
2018-04-19T10:33:01.925Z,19.43
2018-04-19T10:35:30.301Z,20.11
2018-04-19T10:37:58.841Z,21.80
2018-04-19T10:40:27.986Z,19.74
2018-04-19T10:42:56.398Z,20.76
2018-04-19T10:45:24.762Z,20.05
2018-04-19T10:47:53.141Z,19.89
2018-04-19T10:50:21.538Z,20.38
2018-04-19T10:52:49.940Z,18.42
2018-04-19T10:55:18.305Z,18.89
2018-04-19T10:57:46.695Z,19.50
2018-04-19T11:00:15.153Z,18.73
2018-04-19T11:02:43.530Z,17.67
2018-04-19T11:05:11.942Z,19.65
2018-04-19T11:07:41.874Z,19.27
2018-04-19T11:10:10.290Z,18.63
2018-04-19T11:12:38.736Z,19.54
2018-04-19T11:15:07.106Z,20.53
2018-04-19T11:17:35.502Z,19.52
2018-04-19T11:20:03.883Z,19.38
2018-04-19T11:22:33.287Z,20.12
2018-04-19T11:25:01.638Z,20.55
2018-04-19T11:27:29.998Z,20.42
2018-04-19T11:29:58.410Z,20.26
2018-04-19T11:32:26.795Z,20.44
2018-04-19T11:34:55.182Z,20.04
2018-04-19T11:37:23.589Z,20.00
2018-04-19T11:39:52.758Z,19.88
2018-04-19T11:42:21.133Z,20.76
2018-04-19T11:44:49.536Z,22.29
2018-04-19T11:47:18.110Z,20.08
2018-04-19T11:49:46.499Z,19.59
2018-04-19T11:52:14.929Z,19.48
2018-04-19T11:54:44.072Z,20.35
2018-04-19T11:57:12.454Z,19.56
2018-04-19T11:59:40.862Z,20.63
2018-04-19T12:02:09.265Z,21.18
2018-04-19T12:04:37.685Z,21.35
2018-04-19T12:07:06.073Z,20.20
2018-04-19T12:09:34.455Z,20.08
2018-04-19T12:12:02.843Z,20.06
2018-04-19T12:14:31.224Z,20.86
2018-04-19T12:16:59.613Z,21.82
2018-04-19T12:19:28.094Z,20.72
2018-04-19T12:21:56.493Z,21.23
2018-04-19T12:24:24.929Z,20.93
2018-04-19T12:26:53.362Z,20.51
2018-04-19T12:29:21.769Z,21.78
2018-04-19T12:31:50.209Z,21.35
2018-04-19T12:34:18.638Z,20.63
2018-04-19T12:36:47.021Z,21.32
2018-04-19T12:39:15.420Z,21.00
2018-04-19T12:41:43.794Z,20.79
2018-04-19T12:44:12.198Z,21.77
2018-04-19T12:46:41.340Z,23.32
2018-04-19T12:49:09.735Z,21.04
2018-04-19T12:51:38.156Z,20.66
2018-04-19T12:54:06.527Z,20.13
2018-04-19T12:56:34.978Z,20.38
2018-04-19T12:59:03.364Z,20.79
2018-04-19T13:01:31.800Z,20.47
2018-04-19T13:04:00.178Z,20.49
2018-04-19T13:06:29.375Z,20.79
2018-04-19T13:08:57.764Z,19.38
2018-04-19T13:11:26.132Z,19.67
2018-04-19T13:13:54.662Z,18.07
2018-04-19T13:16:23.137Z,20.28
2018-04-19T13:18:51.533Z,20.02
2018-04-19T13:21:20.009Z,19.69
2018-04-19T13:23:49.192Z,19.64
2018-04-19T13:26:17.561Z,19.11
2018-04-19T13:28:45.947Z,21.21
2018-04-19T13:31:14.338Z,19.58
2018-04-19T13:33:42.718Z,19.37
2018-04-19T13:36:11.909Z,19.80
2018-04-19T13:38:40.289Z,19.97
2018-04-19T13:41:08.690Z,20.92
2018-04-19T13:43:37.083Z,20.33
2018-04-19T13:46:06.307Z,19.13
2018-04-19T13:48:34.687Z,19.33
2018-04-19T13:51:03.086Z,19.19
2018-04-19T13:53:31.504Z,19.02
2018-04-19T13:55:59.882Z,18.45
2018-04-19T13:58:28.274Z,18.34
2018-04-19T14:00:56.642Z,18.51
2018-04-19T14:03:25.052Z,19.01
2018-04-19T14:05:53.490Z,18.49
2018-04-19T14:08:22.610Z,18.33
2018-04-19T14:10:51.018Z,19.84
2018-04-19T14:13:19.402Z,19.86
2018-04-19T14:15:47.811Z,19.47
2018-04-19T14:18:16.965Z,18.23
2018-04-19T14:20:45.545Z,18.09
2018-04-19T14:23:13.954Z,18.54
2018-04-19T14:25:42.346Z,18.68
2018-04-19T14:28:10.778Z,19.77
2018-04-19T14:30:39.173Z,18.60
2018-04-19T14:33:07.572Z,18.84
2018-04-19T14:35:35.951Z,17.96
2018-04-19T14:38:04.400Z,18.19
2018-04-19T14:40:32.825Z,18.49
2018-04-19T14:43:01.250Z,17.75
2018-04-19T14:45:30.395Z,19.32
2018-04-19T14:47:58.777Z,17.35
2018-04-19T14:50:27.270Z,18.75
2018-04-19T14:52:55.663Z,17.81
2018-04-19T14:55:24.867Z,19.99
2018-04-19T14:57:53.230Z,17.41
2018-04-19T15:00:21.634Z,17.10
2018-04-19T15:02:50.012Z,17.62
2018-04-19T15:05:18.460Z,19.49
2018-04-19T15:07:46.958Z,18.38
2018-04-19T15:10:15.347Z,18.91
2018-04-19T15:12:43.733Z,20.80
2018-04-19T15:15:12.114Z,17.88
2018-04-19T15:17:40.558Z,19.37
2018-04-19T15:20:09.713Z,18.44
2018-04-19T15:22:38.117Z,18.08
2018-04-19T15:25:06.513Z,18.82
2018-04-19T15:27:35.691Z,19.32
2018-04-19T15:30:04.078Z,18.07
2018-04-19T15:32:32.467Z,18.04
2018-04-19T15:35:00.859Z,19.72
2018-04-19T15:37:29.268Z,20.34
2018-04-19T15:39:57.745Z,18.93
2018-04-19T15:42:27.035Z,18.43
2018-04-19T15:44:56.191Z,19.70
2018-04-19T15:47:24.704Z,18.64
2018-04-19T15:49:53.115Z,18.50
2018-04-19T15:52:22.342Z,19.34
2018-04-19T15:54:50.726Z,19.12
2018-04-19T15:57:19.106Z,18.61
2018-04-19T15:59:47.486Z,19.19
2018-04-19T16:02:15.915Z,19.21
2018-04-19T16:04:44.362Z,19.50
2018-04-19T16:07:12.737Z,18.13
2018-04-19T16:09:41.127Z,19.04
2018-04-19T16:12:09.527Z,19.20
2018-04-19T16:14:37.933Z,19.88
2018-04-19T16:17:06.384Z,18.19
2018-04-19T16:19:35.654Z,19.46
2018-04-19T16:22:04.850Z,19.44
2018-04-19T16:24:33.227Z,20.87
2018-04-19T16:27:01.654Z,20.60
2018-04-19T16:29:30.810Z,20.92
2018-04-19T16:31:59.186Z,21.88
2018-04-19T16:34:27.624Z,20.62
2018-04-19T16:36:56.809Z,21.58
2018-04-19T16:39:25.958Z,20.95
2018-04-19T16:41:54.349Z,21.74
2018-04-19T16:44:22.749Z,22.08
2018-04-19T16:46:51.181Z,23.62
2018-04-19T16:49:19.605Z,26.12
2018-04-19T16:51:47.984Z,25.10
2018-04-19T16:54:16.366Z,24.87
2018-04-19T16:56:44.761Z,25.21
2018-04-19T16:59:13.149Z,25.05
2018-04-19T17:01:41.543Z,24.94
2018-04-19T17:04:10.766Z,25.13
2018-04-19T17:06:39.138Z,25.29
2018-04-19T17:09:08.301Z,25.08
2018-04-19T17:11:36.849Z,25.23
2018-04-19T17:14:05.253Z,24.92
2018-04-19T17:16:34.425Z,25.56
2018-04-19T17:19:02.824Z,26.14
2018-04-19T17:21:31.202Z,25.51
2018-04-19T17:23:59.584Z,26.25
2018-04-19T17:26:28.027Z,26.48
2018-04-19T17:28:56.418Z,26.16
2018-04-19T17:31:25.588Z,26.71
2018-04-19T17:33:53.958Z,27.33
2018-04-19T17:36:22.350Z,27.24
2018-04-19T17:38:50.694Z,28.31
2018-04-19T17:41:19.077Z,27.62
2018-04-19T17:43:47.477Z,27.65
2018-04-19T17:46:15.894Z,28.65
2018-04-19T17:48:44.329Z,28.32
2018-04-19T17:51:12.716Z,28.60
2018-04-19T17:53:41.129Z,29.45
2018-04-19T17:56:09.502Z,30.10
2018-04-19T17:58:37.865Z,30.67
2018-04-19T18:01:06.249Z,29.59
2018-04-19T18:03:34.640Z,31.44
2018-04-19T18:06:03.092Z,31.04
2018-04-19T18:08:32.259Z,31.60
2018-04-19T18:11:00.638Z,32.12
2018-04-19T18:13:29.018Z,33.14
2018-04-19T18:15:57.413Z,33.22
2018-04-19T18:18:25.811Z,32.98
2018-04-19T18:20:54.210Z,33.01
2018-04-19T18:23:23.364Z,34.08
2018-04-19T18:25:51.842Z,34.28
2018-04-19T18:28:20.331Z,34.77
2018-04-19T18:30:49.444Z,35.30
2018-04-19T18:33:18.621Z,36.95
2018-04-19T18:35:47.778Z,37.07
2018-04-19T18:38:16.927Z,38.10
2018-04-19T18:40:45.342Z,38.61
2018-04-19T18:43:13.741Z,39.30
2018-04-19T18:45:42.154Z,40.27
2018-04-19T18:48:10.770Z,40.55
2018-04-19T18:50:39.179Z,40.99
2018-04-19T18:53:07.584Z,41.57
2018-04-19T18:55:36.747Z,42.32
2018-04-19T18:58:05.178Z,43.39
2018-04-19T19:00:34.343Z,43.29
2018-04-19T19:03:02.762Z,42.84
2018-04-19T19:05:31.981Z,44.20
2018-04-19T19:08:00.374Z,43.92
2018-04-19T19:10:28.790Z,44.01
2018-04-19T19:12:57.272Z,42.95
2018-04-19T19:19:10.054Z,42.65
2018-04-19T19:21:39.172Z,42.48
2018-04-19T19:24:07.632Z,42.10
2018-04-19T19:26:36.035Z,41.69
2018-04-19T19:29:04.414Z,41.59
2018-04-19T19:31:32.847Z,42.62
2018-04-19T19:34:02.220Z,44.20
2018-04-19T19:36:30.608Z,41.83
2018-04-19T19:38:58.999Z,42.10
2018-04-19T19:41:27.423Z,42.97
2018-04-19T19:43:55.807Z,43.13
2018-04-19T19:46:24.197Z,43.74
2018-04-19T19:48:52.685Z,44.97
2018-04-19T19:51:21.085Z,45.40
2018-04-19T19:53:49.473Z,44.80
2018-04-19T19:56:17.849Z,45.84
2018-04-19T19:58:46.257Z,45.81
2018-04-19T20:01:14.686Z,45.22
2018-04-19T20:03:43.819Z,45.66
2018-04-19T20:06:12.238Z,45.40
2018-04-19T20:08:41.407Z,45.83
2018-04-19T20:11:09.830Z,46.59
2018-04-19T20:13:38.210Z,46.23
2018-04-19T20:16:06.608Z,45.61
2018-04-19T20:18:35.761Z,45.93
2018-04-19T20:21:04.217Z,46.29
2018-04-19T20:23:32.613Z,46.16
2018-04-19T20:26:01.005Z,46.96
2018-04-19T20:28:29.404Z,45.59
2018-04-19T20:30:57.810Z,45.19
2018-04-19T20:33:27.078Z,44.08
2018-04-19T20:35:55.486Z,45.17
2018-04-19T20:38:23.871Z,47.20
2018-04-19T20:40:52.290Z,46.88
2018-04-19T20:43:20.702Z,46.98
2018-04-19T20:45:49.090Z,47.63
2018-04-19T20:48:17.543Z,48.41
2018-04-19T20:50:46.019Z,48.53
2018-04-19T20:53:15.167Z,49.16
2018-04-19T20:55:43.595Z,48.40
2018-04-19T20:58:12.766Z,49.41
2018-04-19T21:00:41.161Z,48.93
2018-04-19T21:03:09.589Z,47.16
2018-04-19T21:05:37.987Z,47.45
2018-04-19T21:08:06.423Z,49.00
2018-04-19T21:10:34.833Z,49.50
2018-04-19T21:13:03.211Z,49.37
2018-04-19T21:15:32.388Z,49.69
2018-04-19T21:18:00.817Z,51.01
2018-04-19T21:20:29.226Z,49.56
2018-04-19T21:22:58.435Z,49.28
2018-04-19T21:25:26.924Z,49.37
2018-04-19T21:27:55.323Z,49.83
2018-04-19T21:30:23.717Z,49.68
2018-04-19T21:32:52.106Z,50.10
2018-04-19T21:35:21.306Z,50.63
2018-04-19T21:37:50.473Z,50.05
2018-04-19T21:40:18.853Z,51.13
2018-04-19T21:42:47.307Z,50.95
2018-04-19T21:45:15.889Z,50.76
2018-04-19T21:47:44.294Z,50.39
2018-04-19T21:50:13.519Z,50.94
2018-04-19T21:52:41.914Z,50.80
2018-04-19T21:55:10.342Z,51.29
2018-04-19T21:57:38.717Z,51.55
2018-04-19T22:00:07.094Z,52.22
2018-04-19T22:02:36.245Z,52.42
2018-04-19T22:05:05.415Z,52.98
2018-04-19T22:07:33.825Z,53.54
2018-04-19T22:10:02.227Z,54.02
2018-04-19T22:12:30.594Z,55.79
2018-04-19T22:14:59.062Z,55.56
2018-04-19T22:17:27.446Z,55.40
2018-04-19T22:19:55.847Z,55.84
2018-04-19T22:22:24.258Z,56.66
2018-04-19T22:24:52.691Z,57.51
2018-04-19T22:27:21.117Z,57.38
2018-04-19T22:29:49.514Z,58.68
2018-04-19T22:32:17.888Z,58.46
2018-04-19T22:34:46.355Z,59.32
2018-04-19T22:37:14.962Z,59.13
2018-04-19T22:39:43.543Z,59.75
2018-04-19T22:42:11.932Z,59.51
2018-04-19T22:44:40.294Z,60.10
2018-04-19T22:47:08.707Z,58.86
2018-04-19T22:49:37.845Z,58.48
2018-04-19T22:52:06.273Z,58.92
2018-04-19T22:54:34.681Z,59.51
2018-04-19T22:57:03.849Z,59.70
2018-04-19T22:59:32.269Z,60.11
2018-04-19T23:02:01.417Z,60.06
2018-04-19T23:04:29.804Z,60.40
2018-04-19T23:06:58.278Z,60.88
2018-04-19T23:09:26.673Z,61.71
2018-04-19T23:11:55.044Z,61.85
2018-04-19T23:14:23.465Z,61.22
2018-04-19T23:16:51.850Z,62.26
2018-04-19T23:19:20.227Z,62.59
2018-04-19T23:21:48.614Z,62.48
2018-04-19T23:24:17.006Z,62.43
2018-04-19T23:26:45.417Z,62.07
2018-04-19T23:29:14.575Z,63.73
2018-04-19T23:31:42.963Z,62.85
2018-04-19T23:34:11.342Z,63.71
2018-04-19T23:36:39.731Z,63.26
2018-04-19T23:39:08.267Z,64.68
2018-04-19T23:41:36.638Z,64.47
2018-04-19T23:44:05.050Z,64.79
2018-04-19T23:46:33.423Z,64.56
2018-04-19T23:49:01.804Z,64.72
2018-04-19T23:51:30.181Z,64.66
2018-04-19T23:53:59.516Z,65.50
2018-04-19T23:56:27.885Z,65.21
2018-04-19T23:58:56.277Z,65.10
